createdAt,value
2019-03-09T00:05:01.688Z,86.10
2019-03-09T00:11:03.990Z,86.40
2019-03-09T00:17:06.256Z,86.40
2019-03-09T00:23:22.663Z,86.60
2019-03-09T00:29:29.674Z,87.10
2019-03-09T00:35:32.300Z,86.40
2019-03-09T00:41:34.452Z,86.20
2019-03-09T00:47:36.783Z,86.00
2019-03-09T00:53:39.108Z,85.50
2019-03-09T00:59:41.373Z,85.00
2019-03-09T01:05:44.704Z,85.10
2019-03-09T01:11:46.968Z,85.60
2019-03-09T01:17:49.346Z,85.80
2019-03-09T01:23:51.611Z,86.90
2019-03-09T01:29:53.854Z,87.00
2019-03-09T01:35:56.962Z,86.70
2019-03-09T01:41:59.252Z,86.60
2019-03-09T01:48:01.521Z,86.70
2019-03-09T01:54:03.686Z,87.30
2019-03-09T02:00:06.993Z,87.50
2019-03-09T02:06:10.357Z,87.40
2019-03-09T02:12:14.703Z,87.70
2019-03-09T02:18:17.027Z,87.90
2019-03-09T02:24:19.208Z,89.00
2019-03-09T02:30:21.507Z,89.40
2019-03-09T02:36:24.094Z,89.40
2019-03-09T02:42:26.633Z,89.50
2019-03-09T02:48:28.903Z,89.80
2019-03-09T02:54:31.066Z,90.10
2019-03-09T03:00:35.333Z,90.10
2019-03-09T03:06:37.686Z,90.30
2019-03-09T03:12:39.864Z,90.40
2019-03-09T03:18:42.060Z,90.40
2019-03-09T03:24:44.443Z,90.40
2019-03-09T03:30:46.641Z,90.50
2019-03-09T03:36:49.986Z,90.40
2019-03-09T03:42:52.179Z,90.70
2019-03-09T03:48:54.344Z,90.90
2019-03-09T03:54:56.505Z,91.20
2019-03-09T04:00:58.712Z,90.90
2019-03-09T04:07:01.465Z,91.30
2019-03-09T04:13:03.658Z,91.30
2019-03-09T04:19:06.011Z,90.90
2019-03-09T04:25:08.278Z,90.90
2019-03-09T04:31:10.641Z,91.20
2019-03-09T04:37:12.789Z,91.20
2019-03-09T04:43:15.249Z,91.50
2019-03-09T04:49:17.496Z,91.50
2019-03-09T04:55:19.794Z,91.60
2019-03-09T05:01:22.051Z,92.30
2019-03-09T05:07:41.359Z,92.30
2019-03-09T05:14:05.245Z,92.10
2019-03-09T05:20:07.468Z,91.70
2019-03-09T05:26:10.839Z,91.60
2019-03-09T05:32:13.196Z,91.40
2019-03-09T05:38:15.437Z,91.40
2019-03-09T05:44:18.598Z,91.20
2019-03-09T05:50:20.828Z,91.40
2019-03-09T05:56:23.086Z,91.10
2019-03-09T06:02:25.328Z,91.30
2019-03-09T06:08:28.728Z,91.10
2019-03-09T06:14:31.199Z,91.00
2019-03-09T06:20:35.467Z,91.10
2019-03-09T06:26:38.723Z,91.30
2019-03-09T06:33:16.223Z,91.10
2019-03-09T06:39:23.802Z,90.80
2019-03-09T06:45:27.950Z,90.70
2019-03-09T06:51:30.231Z,91.10
2019-03-09T06:57:32.613Z,91.50
2019-03-09T07:03:34.879Z,92.00
2019-03-09T07:09:37.223Z,91.40
2019-03-09T07:15:43.758Z,91.70
2019-03-09T07:21:47.047Z,92.10
2019-03-09T07:28:04.243Z,92.50
2019-03-09T07:34:23.209Z,92.00
2019-03-09T07:40:26.552Z,91.30
2019-03-09T07:46:29.019Z,91.20
2019-03-09T07:52:33.395Z,91.00
2019-03-09T07:58:36.645Z,90.70
2019-03-09T08:04:40.874Z,90.80
2019-03-09T08:10:43.051Z,90.50
2019-03-09T08:16:47.821Z,87.70
2019-03-09T08:22:51.180Z,89.60
2019-03-09T08:28:55.495Z,88.60
2019-03-09T08:34:57.629Z,86.70
2019-03-09T08:40:59.807Z,86.70
2019-03-09T08:47:03.259Z,88.30
2019-03-09T08:53:05.417Z,90.10
2019-03-09T08:59:07.569Z,89.00
2019-03-09T09:05:09.927Z,89.30
2019-03-09T09:11:12.348Z,89.70
2019-03-09T09:17:14.611Z,89.20
2019-03-09T09:23:16.772Z,87.70
2019-03-09T09:29:18.994Z,86.70
2019-03-09T09:35:21.442Z,84.00
2019-03-09T09:41:23.654Z,83.50
2019-03-09T09:47:26.091Z,82.50
2019-03-09T09:53:28.307Z,82.30
2019-03-09T09:59:30.475Z,83.20
2019-03-09T10:05:32.886Z,82.90
2019-03-09T10:11:35.032Z,82.90
2019-03-09T10:17:38.300Z,83.50
2019-03-09T10:23:41.983Z,83.20
2019-03-09T10:29:44.128Z,83.00
2019-03-09T10:35:46.432Z,82.80
2019-03-09T10:41:48.648Z,82.70
2019-03-09T10:47:51.200Z,80.90
2019-03-09T10:53:53.644Z,81.00
2019-03-09T10:59:55.783Z,80.30
2019-03-09T11:05:58.080Z,79.20
2019-03-09T11:12:00.276Z,79.00
2019-03-09T11:18:02.451Z,80.30
2019-03-09T11:24:04.669Z,80.10
2019-03-09T11:30:10.756Z,79.90
2019-03-09T11:36:12.982Z,78.90
2019-03-09T11:42:15.360Z,77.20
2019-03-09T11:48:17.671Z,75.10
2019-03-09T11:54:20.008Z,73.30
2019-03-09T12:00:24.163Z,72.50
2019-03-09T12:06:26.354Z,70.80
2019-03-09T12:12:28.649Z,71.90
2019-03-09T12:18:30.728Z,69.60
2019-03-09T12:24:33.109Z,69.50
2019-03-09T12:30:35.439Z,68.50
2019-03-09T12:36:37.781Z,67.30
2019-03-09T12:42:40.016Z,65.20
2019-03-09T12:48:42.234Z,63.40
2019-03-09T12:54:44.378Z,62.40
2019-03-09T13:00:46.794Z,59.40
2019-03-09T13:06:48.957Z,60.40
2019-03-09T13:12:51.227Z,58.90
2019-03-09T13:18:53.475Z,58.30
2019-03-09T13:24:55.873Z,57.70
2019-03-09T13:30:58.142Z,58.30
2019-03-09T13:37:02.988Z,57.10
2019-03-09T13:43:06.114Z,56.50
2019-03-09T13:49:08.369Z,55.00
2019-03-09T13:55:12.095Z,54.80
2019-03-09T14:01:14.372Z,56.00
2019-03-09T14:07:16.685Z,55.80
2019-03-09T14:13:18.858Z,56.20
2019-03-09T14:19:21.167Z,56.70
2019-03-09T14:25:24.474Z,57.00
2019-03-09T14:31:26.965Z,57.80
2019-03-09T14:37:29.179Z,58.10
2019-03-09T14:43:32.574Z,58.50
2019-03-09T14:49:34.856Z,59.40
2019-03-09T14:55:37.263Z,59.30
2019-03-09T15:01:39.528Z,59.30
2019-03-09T15:07:41.868Z,59.80
2019-03-09T15:13:44.053Z,59.40
2019-03-09T15:19:46.272Z,60.10
2019-03-09T15:25:48.639Z,60.00
2019-03-09T15:31:50.879Z,60.30
2019-03-09T15:37:53.175Z,60.30
2019-03-09T15:43:55.430Z,60.00
2019-03-09T15:49:57.616Z,59.90
2019-03-09T15:55:59.823Z,60.10
2019-03-09T16:02:12.293Z,60.10
2019-03-09T16:08:14.729Z,60.30
2019-03-09T16:14:17.011Z,60.20
2019-03-09T16:20:19.256Z,61.20
2019-03-09T16:26:21.497Z,62.30
2019-03-09T16:32:23.711Z,62.40
2019-03-09T16:38:27.066Z,63.40
2019-03-09T16:44:29.320Z,63.80
2019-03-09T16:50:31.632Z,64.20
2019-03-09T16:56:35.218Z,64.40
2019-03-09T17:02:37.377Z,64.60
2019-03-09T17:08:39.536Z,66.00
2019-03-09T17:14:41.829Z,65.30
2019-03-09T17:20:44.293Z,65.90
2019-03-09T17:26:46.533Z,69.20
2019-03-09T17:32:48.889Z,72.80
2019-03-09T17:38:51.087Z,76.00
2019-03-09T17:44:53.315Z,79.70
2019-03-09T17:50:55.695Z,81.70
2019-03-09T17:56:58.090Z,84.20
2019-03-09T18:03:00.398Z,86.00
2019-03-09T18:09:04.682Z,87.80
2019-03-09T18:15:07.364Z,88.70
2019-03-09T18:21:09.591Z,88.50
2019-03-09T18:27:12.277Z,89.00
2019-03-09T18:33:15.638Z,89.50
2019-03-09T18:39:19.505Z,89.40
2019-03-09T18:45:21.679Z,89.30
2019-03-09T18:51:23.917Z,89.20
2019-03-09T18:57:26.279Z,89.80
2019-03-09T19:03:28.858Z,89.50
2019-03-09T19:09:31.031Z,89.60
2019-03-09T19:15:33.396Z,88.90
2019-03-09T19:21:35.646Z,87.40
2019-03-09T19:27:37.914Z,85.70
2019-03-09T19:33:40.226Z,83.30
2019-03-09T19:39:42.578Z,81.70
2019-03-09T19:45:45.058Z,80.30
2019-03-09T19:51:47.303Z,79.90
2019-03-09T19:57:49.474Z,76.70
2019-03-09T20:03:51.939Z,75.40
2019-03-09T20:09:54.201Z,74.20
2019-03-09T20:15:56.419Z,72.80
2019-03-09T20:21:58.751Z,71.40
2019-03-09T20:28:01.139Z,70.90
2019-03-09T20:34:03.538Z,70.60
2019-03-09T20:40:07.067Z,69.80
2019-03-09T20:46:09.403Z,69.70
2019-03-09T20:52:12.765Z,69.60
2019-03-09T20:58:15.260Z,69.50
2019-03-09T21:04:17.733Z,68.20
2019-03-09T21:10:20.288Z,68.30
2019-03-09T21:16:22.550Z,68.50
2019-03-09T21:22:24.839Z,68.90
2019-03-09T21:28:27.512Z,68.90
2019-03-09T21:34:29.987Z,68.80
2019-03-09T21:40:32.284Z,68.60
2019-03-09T21:46:34.567Z,68.60
2019-03-09T21:52:36.823Z,68.70
2019-03-09T21:58:38.989Z,68.30
2019-03-09T22:04:41.409Z,67.50
2019-03-09T22:10:43.859Z,66.90
2019-03-09T22:16:55.963Z,66.90
2019-03-09T22:22:50.162Z,66.80
2019-03-09T22:28:52.560Z,66.20
2019-03-09T22:34:55.067Z,66.10
2019-03-09T22:40:57.387Z,65.50
2019-03-09T22:46:59.663Z,65.00
2019-03-09T22:53:01.848Z,64.60
2019-03-09T22:59:04.036Z,64.60
2019-03-09T23:05:07.770Z,65.10
2019-03-09T23:11:10.276Z,64.50
2019-03-09T23:17:12.491Z,65.20
2019-03-09T23:23:14.812Z,65.70
2019-03-09T23:29:17.112Z,66.00
2019-03-09T23:35:20.131Z,66.00
2019-03-09T23:41:22.659Z,65.30
2019-03-09T23:47:24.883Z,65.30
2019-03-09T23:53:27.220Z,65.00
2019-03-09T23:59:29.596Z,64.60
